Boulder, CO (80301)

12:09 AM MDT on May 26, 2017 (GMT -0600)
63rd St and Jay Rd | | Change Station

Elev 5202 ft 40.06 °N, 105.21 °W | Updated 5 seconds ago

Heavy Thunderstorms and Rain
Heavy Thunderstorm Rain
49.6 °F
Feels Like 45 °F
N
11.0
Wind Variable Wind from North
Gusts 17.0 mph

Today
High -- | Low -- °F
--% Chance of Precip.
Yesterday
High -- | Low -- °F
Precip. -- in
Pressure 29.95 in
Visibility 7.0 miles
Clouds Scattered Clouds 3200 ft
Mostly Cloudy 5500 ft
Overcast 6500 ft
Windchill 45 °F
Dew Point 46 °F
Humidity 87%
Rainfall 0.04 in
Snow Depth Not available.
5:36 AM 8:19 PM
New Moon, 0% visible
METAR KBDU 260555Z AUTO 32003KT 7SM +TSRA SCT032 BKN055 OVC065 11/10 A2995 RMK AO2 P0013 LTG DSNT ALQS
Pressure 29.95 in
Visibility 7.0 miles
Clouds Scattered Clouds 3200 ft
Mostly Cloudy 5500 ft
Overcast 6500 ft
Windchill 45 °F
Dew Point 46 °F
Humidity 87%
Rainfall 0.04 in
Snow Depth Not available.
5:36 AM 8:19 PM
New Moon, 0% visible
METAR KBDU 260555Z AUTO 32003KT 7SM +TSRA SCT032 BKN055 OVC065 11/10 A2995 RMK AO2 P0013 LTG DSNT ALQS

Get Severe Weather Alerts

Thanks for signing up!

Be on the lookout for a verification email in your inbox.

You'll start receiving the daily forecast at 6 AM.

×

10-Day Weather Forecast

Almanac

Astronomy

May. 26, 2017 Rise Set
Actual Time
Civil Twilight
Nautical Twilight
Astronomical Twilight
Moon
Length of Visible Light
Length of Day
Tomorrow will be .
, % of the Moon is Illuminated

Today's Extremes

State Highs State Lows

Community

WunderPhotos

Category 6

Welcome to Category 6. This is the collective home for Weather Underground's featured writeups by Dr. Jeff Masters (right), Bob Henson (left), Chris Burt, and other regular contributors.

Nearby

Air Quality

  Air Quality AQ Index Pollutant
Not available.

Snow Depth

Station Depth Elevation

Earthquake Activity

City Distance Mag. Time & Date
Minimum magnitude displayed is 2.5.

Coastal Water Temperatures

Place Temperature

Stations

Nearby Weather Stations

Station Location Temp. Windchill Dew Point Humidity Wind Precip. Elev Updated Type
                   

Watches & Warnings

There are currently no watches in effect.